createdAt,value
2019-03-30T00:01:20.301Z,99.90
2019-03-30T00:03:58.560Z,99.90
2019-03-30T00:06:37.434Z,99.90
2019-03-30T00:09:15.811Z,99.90
2019-03-30T00:11:53.739Z,99.90
2019-03-30T00:14:31.954Z,99.90
2019-03-30T00:17:10.800Z,99.90
2019-03-30T00:19:48.930Z,99.90
2019-03-30T00:22:27.276Z,99.90
2019-03-30T00:25:05.486Z,99.90
2019-03-30T00:27:43.823Z,99.90
2019-03-30T00:30:22.072Z,99.90
2019-03-30T00:32:59.984Z,99.90
2019-03-30T00:35:38.339Z,99.90
2019-03-30T00:38:16.101Z,99.90
2019-03-30T00:40:54.014Z,99.90
2019-03-30T00:43:31.989Z,99.90
2019-03-30T00:46:10.078Z,99.90
2019-03-30T00:48:48.049Z,99.90
2019-03-30T00:51:37.029Z,99.90
2019-03-30T00:54:15.074Z,99.90
2019-03-30T00:56:53.009Z,99.90
2019-03-30T00:59:30.669Z,99.90
2019-03-30T01:02:08.920Z,99.90
2019-03-30T01:05:00.036Z,99.90
2019-03-30T01:07:38.361Z,99.90
2019-03-30T01:10:17.286Z,99.90
2019-03-30T01:12:55.143Z,99.90
2019-03-30T01:15:33.259Z,99.90
2019-03-30T01:18:10.966Z,99.90
2019-03-30T01:20:48.769Z,99.90
2019-03-30T01:23:37.638Z,99.90
2019-03-30T01:26:15.458Z,99.90
2019-03-30T01:28:53.550Z,99.90
2019-03-30T01:31:31.762Z,99.90
2019-03-30T01:34:09.713Z,99.90
2019-03-30T01:36:48.627Z,99.90
2019-03-30T01:39:26.504Z,99.90
2019-03-30T01:42:04.734Z,99.90
2019-03-30T01:44:43.006Z,99.90
2019-03-30T01:47:21.143Z,99.90
2019-03-30T01:49:58.850Z,99.90
2019-03-30T01:52:36.802Z,99.90
2019-03-30T01:55:14.581Z,99.90
2019-03-30T01:57:52.338Z,99.90
2019-03-30T02:00:30.596Z,99.90
2019-03-30T02:03:08.847Z,99.90
2019-03-30T02:05:46.580Z,99.90
2019-03-30T02:08:24.454Z,99.90
2019-03-30T02:11:02.322Z,99.90
2019-03-30T02:13:40.088Z,99.90
2019-03-30T02:16:17.931Z,99.90
2019-03-30T02:18:55.807Z,99.90
2019-03-30T02:21:33.636Z,99.90
2019-03-30T02:24:13.305Z,99.90
2019-03-30T02:26:51.268Z,99.90
2019-03-30T02:29:28.951Z,99.90
2019-03-30T02:32:06.941Z,99.90
2019-03-30T02:34:45.130Z,99.90
2019-03-30T02:37:22.993Z,99.90
2019-03-30T02:40:00.740Z,99.90
2019-03-30T02:42:38.605Z,99.90
2019-03-30T02:45:16.492Z,99.90
2019-03-30T02:47:54.416Z,99.90
2019-03-30T02:50:48.250Z,99.90
2019-03-30T02:53:12.646Z,99.90
2019-03-30T02:55:50.513Z,99.90
2019-03-30T02:58:28.445Z,99.90
2019-03-30T03:01:06.311Z,99.90
2019-03-30T03:03:44.633Z,99.90
2019-03-30T03:06:22.376Z,99.90
2019-03-30T03:09:00.310Z,99.90
2019-03-30T03:11:38.688Z,99.90
2019-03-30T03:14:16.409Z,99.90
2019-03-30T03:16:54.836Z,99.90
2019-03-30T03:19:33.117Z,99.90
2019-03-30T03:22:10.969Z,99.90
2019-03-30T03:24:49.339Z,99.90
2019-03-30T03:27:27.562Z,99.90
2019-03-30T03:30:07.158Z,99.90
2019-03-30T03:32:45.106Z,99.90
2019-03-30T03:35:24.622Z,99.90
2019-03-30T03:38:02.993Z,99.90
2019-03-30T03:40:40.883Z,99.90
2019-03-30T03:43:18.638Z,99.90
2019-03-30T03:45:56.518Z,99.90
2019-03-30T03:48:34.692Z,99.90
2019-03-30T03:51:25.533Z,99.90
2019-03-30T03:53:54.104Z,99.90
2019-03-30T03:56:33.445Z,99.90
2019-03-30T03:59:13.233Z,99.90
2019-03-30T04:01:52.816Z,99.90
2019-03-30T04:04:33.848Z,99.90
2019-03-30T04:07:13.472Z,99.90
2019-03-30T04:09:54.386Z,99.90
2019-03-30T04:12:32.735Z,99.90
2019-03-30T04:15:11.796Z,99.90
2019-03-30T04:17:49.637Z,99.90
2019-03-30T04:20:27.439Z,99.90
2019-03-30T04:23:05.746Z,99.90
2019-03-30T04:25:43.710Z,99.90
2019-03-30T04:28:22.434Z,99.90
2019-03-30T04:31:00.357Z,99.90
2019-03-30T04:33:38.114Z,99.90
2019-03-30T04:36:15.895Z,99.90
2019-03-30T04:38:53.790Z,99.90
2019-03-30T04:41:32.915Z,99.90
2019-03-30T04:44:10.715Z,99.90
2019-03-30T04:46:49.053Z,99.90
2019-03-30T04:49:26.688Z,99.90
2019-03-30T04:52:04.487Z,99.90
2019-03-30T04:54:43.408Z,99.90
2019-03-30T04:57:22.229Z,99.90
2019-03-30T05:00:00.752Z,99.90
2019-03-30T05:02:39.030Z,99.90
2019-03-30T05:05:17.182Z,99.90
2019-03-30T05:08:06.650Z,99.90
2019-03-30T05:10:44.752Z,99.90
2019-03-30T05:13:22.824Z,99.90
2019-03-30T05:16:00.572Z,99.90
2019-03-30T05:18:38.520Z,99.90
2019-03-30T05:21:16.862Z,99.90
2019-03-30T05:23:54.758Z,99.90
2019-03-30T05:26:32.505Z,99.90
2019-03-30T05:29:10.280Z,99.90
2019-03-30T05:31:48.476Z,99.90
2019-03-30T05:34:26.752Z,99.90
2019-03-30T05:37:05.424Z,99.90
2019-03-30T05:39:43.629Z,99.90
2019-03-30T05:42:21.598Z,99.50
2019-03-30T05:44:59.523Z,99.20
2019-03-30T05:47:37.546Z,99.00
2019-03-30T05:50:15.850Z,98.40
2019-03-30T05:52:54.107Z,98.00
2019-03-30T05:55:32.110Z,98.20
2019-03-30T05:58:11.478Z,98.10
2019-03-30T06:00:49.923Z,97.90
2019-03-30T06:03:28.367Z,98.50
2019-03-30T06:06:06.807Z,98.30
2019-03-30T06:08:44.747Z,98.20
2019-03-30T06:11:22.726Z,97.80
2019-03-30T06:14:00.972Z,97.10
2019-03-30T06:16:39.041Z,95.60
2019-03-30T06:19:16.828Z,94.30
2019-03-30T06:21:55.103Z,92.90
2019-03-30T06:24:33.084Z,92.10
2019-03-30T06:27:10.971Z,90.90
2019-03-30T06:30:21.025Z,91.00
2019-03-30T06:32:58.667Z,91.10
2019-03-30T06:35:36.620Z,91.80
2019-03-30T06:38:14.333Z,91.80
2019-03-30T06:40:52.579Z,91.90
2019-03-30T06:43:31.456Z,90.50
2019-03-30T06:46:09.287Z,90.50
2019-03-30T06:48:47.315Z,88.30
2019-03-30T06:51:25.632Z,86.20
2019-03-30T06:54:03.712Z,85.70
2019-03-30T06:56:42.140Z,84.30
2019-03-30T06:59:19.807Z,83.10
2019-03-30T07:01:58.140Z,80.50
2019-03-30T07:04:36.677Z,79.90
2019-03-30T07:07:15.718Z,76.60
2019-03-30T07:09:54.293Z,74.80
2019-03-30T07:12:34.429Z,76.80
2019-03-30T07:15:13.145Z,75.20
2019-03-30T07:17:51.878Z,72.40
2019-03-30T07:20:32.917Z,73.90
2019-03-30T07:23:12.475Z,73.60
2019-03-30T07:26:02.352Z,71.60
2019-03-30T07:28:40.285Z,73.10
2019-03-30T07:31:18.484Z,71.30
2019-03-30T07:33:56.863Z,70.10
2019-03-30T07:36:34.740Z,69.80
2019-03-30T07:39:13.082Z,69.40
2019-03-30T07:41:51.504Z,69.00
2019-03-30T08:01:57.073Z,81.10
2019-03-30T08:04:35.090Z,81.90
2019-03-30T08:07:12.963Z,81.50
2019-03-30T08:09:50.787Z,79.80
2019-03-30T08:12:28.513Z,79.40
2019-03-30T08:15:07.778Z,78.70
2019-03-30T08:17:46.132Z,77.90
2019-03-30T08:20:23.753Z,76.60
2019-03-30T08:23:01.603Z,76.30
2019-03-30T08:25:39.528Z,77.00
2019-03-30T08:28:17.395Z,74.40
2019-03-30T08:30:55.392Z,70.90
2019-03-30T08:33:33.481Z,69.40
2019-03-30T08:36:11.864Z,68.90
2019-03-30T08:38:49.880Z,73.50
2019-03-30T08:41:27.720Z,73.90
2019-03-30T08:44:05.489Z,72.00
2019-03-30T08:46:43.433Z,71.10
2019-03-30T08:49:21.681Z,67.10
2019-03-30T08:51:59.680Z,62.70
2019-03-30T08:54:37.533Z,61.50
2019-03-30T08:57:15.628Z,61.10
2019-03-30T08:59:53.449Z,61.40
2019-03-30T09:02:31.239Z,61.60
2019-03-30T09:05:09.905Z,60.90
2019-03-30T09:07:47.966Z,58.50
2019-03-30T09:10:26.481Z,59.40
2019-03-30T09:13:04.403Z,61.30
2019-03-30T09:15:42.407Z,63.00
2019-03-30T09:18:20.262Z,61.60
2019-03-30T09:20:59.429Z,63.60
2019-03-30T09:23:37.945Z,65.10
2019-03-30T09:26:16.752Z,64.60
2019-03-30T09:28:54.810Z,64.80
2019-03-30T09:31:32.694Z,66.20
2019-03-30T09:34:10.595Z,71.90
2019-03-30T09:36:48.703Z,72.90
2019-03-30T09:39:26.906Z,74.70
2019-03-30T09:42:04.990Z,72.90
2019-03-30T09:44:43.012Z,71.60
2019-03-30T09:47:20.926Z,68.80
2019-03-30T09:50:02.139Z,66.30
2019-03-30T09:52:38.467Z,67.00
2019-03-30T09:55:16.458Z,67.70
2019-03-30T09:57:54.490Z,68.50
2019-03-30T10:00:34.067Z,66.90
2019-03-30T10:03:12.104Z,59.10
2019-03-30T10:05:50.561Z,56.50
2019-03-30T10:08:29.293Z,57.20
2019-03-30T10:11:07.216Z,56.90
2019-03-30T10:13:45.788Z,56.30
2019-03-30T10:16:24.930Z,57.90
2019-03-30T10:19:02.757Z,59.20
2019-03-30T10:21:40.722Z,58.00
2019-03-30T10:24:18.832Z,56.20
2019-03-30T10:26:56.834Z,53.60
2019-03-30T10:29:34.509Z,53.30
2019-03-30T10:32:12.533Z,56.10
2019-03-30T10:34:50.340Z,57.30
2019-03-30T10:37:28.353Z,58.00
2019-03-30T10:40:07.157Z,54.50
2019-03-30T10:42:46.142Z,53.80
2019-03-30T10:45:24.438Z,52.90
2019-03-30T10:48:02.636Z,51.40
2019-03-30T10:50:40.637Z,52.70
2019-03-30T10:53:19.476Z,51.80
2019-03-30T10:55:57.321Z,50.80
2019-03-30T10:58:35.288Z,52.00
2019-03-30T11:01:13.449Z,53.00
2019-03-30T11:03:51.705Z,52.90
2019-03-30T11:06:30.170Z,52.50
2019-03-30T11:09:08.564Z,51.50
2019-03-30T11:11:46.478Z,51.80
2019-03-30T11:14:24.385Z,54.10
2019-03-30T11:17:02.516Z,54.30
2019-03-30T11:19:40.733Z,54.00
2019-03-30T11:22:18.619Z,54.10
2019-03-30T11:25:07.209Z,54.00
2019-03-30T11:27:36.574Z,53.40
2019-03-30T11:30:14.529Z,52.40
2019-03-30T11:32:52.557Z,53.40
2019-03-30T11:35:30.383Z,54.10
2019-03-30T11:38:08.291Z,55.10
2019-03-30T11:40:46.244Z,55.90
2019-03-30T11:43:25.102Z,56.80
2019-03-30T11:46:03.359Z,57.40
2019-03-30T11:48:41.329Z,57.10
2019-03-30T11:51:19.227Z,58.70
2019-03-30T11:53:57.235Z,57.80
2019-03-30T12:00:11.364Z,57.30
2019-03-30T12:02:50.102Z,58.80
2019-03-30T12:05:27.893Z,58.60
2019-03-30T12:08:05.801Z,58.70
2019-03-30T12:10:43.913Z,58.00
2019-03-30T12:13:22.422Z,58.20
2019-03-30T12:16:00.419Z,57.80
2019-03-30T12:18:38.543Z,58.40
2019-03-30T12:21:16.946Z,58.00
2019-03-30T12:23:54.892Z,58.80
2019-03-30T12:26:32.648Z,58.80
2019-03-30T12:29:11.130Z,59.20
2019-03-30T12:31:49.959Z,58.60
2019-03-30T12:34:28.160Z,58.80
2019-03-30T12:37:06.051Z,57.10
2019-03-30T12:39:43.808Z,56.70
2019-03-30T12:42:22.588Z,57.50
2019-03-30T12:45:00.802Z,56.30
2019-03-30T12:47:38.704Z,58.30
2019-03-30T12:50:16.694Z,58.00
2019-03-30T12:52:54.491Z,57.90
2019-03-30T12:55:32.704Z,57.10
2019-03-30T12:58:10.601Z,55.60
2019-03-30T13:00:48.476Z,57.20
2019-03-30T13:03:26.838Z,58.60
2019-03-30T13:06:05.037Z,58.70
2019-03-30T13:08:43.019Z,57.30
2019-03-30T13:11:21.680Z,56.90
2019-03-30T13:13:59.653Z,58.30
2019-03-30T13:16:37.557Z,58.80
2019-03-30T13:19:15.315Z,58.90
2019-03-30T13:21:53.453Z,60.30
2019-03-30T13:24:31.485Z,60.80
2019-03-30T13:27:12.741Z,59.50
2019-03-30T13:29:48.962Z,58.60
2019-03-30T13:32:26.801Z,58.00
2019-03-30T13:35:04.866Z,58.80
2019-03-30T13:37:43.052Z,60.30
2019-03-30T13:40:20.867Z,59.60
2019-03-30T13:42:58.656Z,59.60
2019-03-30T13:45:36.652Z,59.90
2019-03-30T13:48:14.629Z,58.70
2019-03-30T13:50:52.592Z,58.00
2019-03-30T13:53:41.885Z,57.60
2019-03-30T13:56:19.569Z,56.60
2019-03-30T13:58:57.464Z,56.40
2019-03-30T14:01:35.330Z,56.60
2019-03-30T14:04:13.328Z,57.60
2019-03-30T14:06:51.262Z,57.40
2019-03-30T14:09:29.145Z,57.90
2019-03-30T14:12:06.951Z,59.40
2019-03-30T14:14:44.943Z,60.50
2019-03-30T14:17:23.178Z,59.50
2019-03-30T14:20:01.027Z,59.70
2019-03-30T14:22:39.961Z,60.00
2019-03-30T14:25:17.773Z,61.60
2019-03-30T14:27:56.022Z,63.00
2019-03-30T14:30:33.859Z,64.80
2019-03-30T14:33:13.173Z,63.60
2019-03-30T14:35:51.055Z,65.30
2019-03-30T14:38:29.269Z,66.20
2019-03-30T14:41:07.177Z,67.80
2019-03-30T14:43:46.105Z,67.90
2019-03-30T14:46:24.361Z,68.30
2019-03-30T14:49:02.383Z,68.10
2019-03-30T14:51:40.231Z,68.20
2019-03-30T14:54:18.063Z,68.70
2019-03-30T14:56:56.167Z,68.00
2019-03-30T14:59:33.864Z,67.80
2019-03-30T15:02:11.550Z,67.10
2019-03-30T15:04:49.390Z,66.70
2019-03-30T15:07:27.709Z,66.90
2019-03-30T15:10:07.299Z,64.60
2019-03-30T15:12:45.083Z,65.30
2019-03-30T15:15:22.971Z,65.90
2019-03-30T15:18:00.869Z,66.30
2019-03-30T15:20:38.700Z,68.10
2019-03-30T15:23:16.531Z,69.50
2019-03-30T15:25:54.344Z,71.20
2019-03-30T15:28:32.192Z,72.40
2019-03-30T15:31:10.046Z,73.30
2019-03-30T15:33:48.000Z,74.50
2019-03-30T15:36:26.332Z,75.20
2019-03-30T15:39:05.664Z,75.60
2019-03-30T15:41:44.098Z,76.10
2019-03-30T15:44:21.900Z,76.90
2019-03-30T15:46:59.562Z,78.50
2019-03-30T15:49:37.622Z,78.50
2019-03-30T15:52:15.557Z,78.70
2019-03-30T15:54:53.602Z,79.50
2019-03-30T15:57:31.925Z,80.20
2019-03-30T16:00:11.918Z,81.60
2019-03-30T16:02:50.347Z,81.50
2019-03-30T16:05:28.513Z,81.80
2019-03-30T16:08:06.780Z,82.70
2019-03-30T16:10:52.267Z,82.60
2019-03-30T16:13:30.914Z,82.80
2019-03-30T16:16:09.677Z,82.60
2019-03-30T16:18:47.775Z,83.00
2019-03-30T16:21:26.603Z,84.70
2019-03-30T16:24:04.667Z,84.40
2019-03-30T16:26:43.266Z,83.00
2019-03-30T16:29:24.695Z,82.60
2019-03-30T16:32:02.752Z,84.50
2019-03-30T16:34:40.799Z,86.40
2019-03-30T16:37:18.809Z,88.40
2019-03-30T16:39:56.726Z,89.40
2019-03-30T16:42:34.473Z,90.10
2019-03-30T16:45:13.793Z,90.30
2019-03-30T16:47:52.847Z,90.70
2019-03-30T16:50:30.645Z,90.90
2019-03-30T16:53:09.013Z,91.10
2019-03-30T16:55:47.395Z,91.20
2019-03-30T16:58:25.909Z,91.40
2019-03-30T17:01:06.238Z,91.60
2019-03-30T17:03:45.227Z,92.00
2019-03-30T17:06:24.557Z,91.90
2019-03-30T17:09:02.578Z,92.00
2019-03-30T17:11:41.608Z,92.20
2019-03-30T17:14:19.497Z,92.50
2019-03-30T17:16:57.774Z,92.60
2019-03-30T17:19:35.754Z,92.80
2019-03-30T17:22:13.644Z,93.10
2019-03-30T17:24:51.968Z,93.30
2019-03-30T17:27:30.305Z,93.60
2019-03-30T17:30:09.259Z,93.80
2019-03-30T17:32:47.117Z,94.00
2019-03-30T17:35:24.898Z,94.30
2019-03-30T17:38:03.650Z,94.70
2019-03-30T17:40:41.623Z,94.80
2019-03-30T17:43:20.301Z,95.00
2019-03-30T17:45:58.388Z,95.40
2019-03-30T17:48:37.261Z,95.80
2019-03-30T17:51:15.258Z,95.90
2019-03-30T17:53:53.334Z,96.20
2019-03-30T17:56:31.125Z,96.40
2019-03-30T17:59:09.045Z,96.60
2019-03-30T18:01:46.903Z,96.80
2019-03-30T18:04:24.818Z,96.90
2019-03-30T18:07:03.775Z,97.00
2019-03-30T18:09:41.631Z,97.20
2019-03-30T18:12:20.539Z,97.20
2019-03-30T18:14:58.563Z,97.30
2019-03-30T18:17:36.786Z,97.40
2019-03-30T18:20:14.871Z,97.40
2019-03-30T18:22:52.645Z,97.30
2019-03-30T18:25:31.013Z,97.30
2019-03-30T18:28:09.307Z,97.20
2019-03-30T18:30:47.515Z,97.30
2019-03-30T18:33:25.411Z,97.30
2019-03-30T18:36:04.159Z,97.50
2019-03-30T18:38:42.045Z,97.70
2019-03-30T18:41:20.189Z,97.90
2019-03-30T18:44:02.057Z,98.10
2019-03-30T18:46:38.823Z,98.30
2019-03-30T18:49:17.864Z,98.50
2019-03-30T18:51:56.536Z,98.70
2019-03-30T18:54:34.926Z,98.80
2019-03-30T18:57:15.026Z,98.90
2019-03-30T18:59:52.988Z,98.90
2019-03-30T19:02:42.040Z,99.00
2019-03-30T19:05:19.854Z,99.00
2019-03-30T19:07:57.839Z,99.20
2019-03-30T19:10:35.731Z,99.10
2019-03-30T19:13:13.776Z,99.10
2019-03-30T19:15:51.854Z,99.20
2019-03-30T19:18:29.877Z,99.30
2019-03-30T19:21:08.140Z,99.20
2019-03-30T19:23:45.935Z,99.30
2019-03-30T19:26:23.710Z,99.30
2019-03-30T19:29:02.026Z,99.40
2019-03-30T19:31:39.971Z,99.60
2019-03-30T19:34:18.074Z,99.80
2019-03-30T19:36:55.813Z,99.90
2019-03-30T19:39:33.800Z,99.90
2019-03-30T19:42:11.689Z,99.90
2019-03-30T19:44:50.045Z,99.90
2019-03-30T19:47:29.367Z,99.90
2019-03-30T19:50:08.309Z,99.90
2019-03-30T19:52:46.494Z,99.90
2019-03-30T19:55:25.042Z,99.90
2019-03-30T19:58:03.541Z,99.90
2019-03-30T20:00:41.514Z,99.90
2019-03-30T20:03:19.537Z,99.90
2019-03-30T20:05:57.544Z,99.90
2019-03-30T20:08:35.728Z,99.90
2019-03-30T20:11:14.122Z,99.90
2019-03-30T20:13:52.590Z,99.90
2019-03-30T20:16:30.373Z,99.90
2019-03-30T20:19:12.500Z,99.90
2019-03-30T20:21:48.177Z,99.90
2019-03-30T20:24:26.513Z,99.90
2019-03-30T20:27:05.175Z,99.90
2019-03-30T20:29:43.289Z,99.90
2019-03-30T20:32:21.313Z,99.90
2019-03-30T20:34:59.160Z,99.90
2019-03-30T20:37:37.199Z,99.90
2019-03-30T20:40:16.602Z,99.90
2019-03-30T20:42:54.525Z,99.90
2019-03-30T20:45:32.976Z,99.90
2019-03-30T20:48:11.486Z,99.90
2019-03-30T20:50:49.447Z,99.90
2019-03-30T20:53:27.197Z,99.90
2019-03-30T20:56:06.543Z,99.90
2019-03-30T20:58:44.972Z,99.90
2019-03-30T21:01:23.423Z,99.90
2019-03-30T21:04:01.502Z,99.90
2019-03-30T21:06:41.418Z,99.90
2019-03-30T21:09:19.845Z,99.90
2019-03-30T21:11:57.960Z,99.90
2019-03-30T21:14:36.026Z,99.90
2019-03-30T21:17:14.260Z,99.90
2019-03-30T21:19:52.623Z,99.90
2019-03-30T21:22:30.610Z,99.90
2019-03-30T21:25:08.722Z,99.90
2019-03-30T21:27:46.480Z,99.90
2019-03-30T21:30:25.242Z,99.90
2019-03-30T21:33:03.188Z,99.90
2019-03-30T21:35:42.692Z,99.90
2019-03-30T21:38:20.978Z,99.90
2019-03-30T21:40:58.912Z,99.90
2019-03-30T21:43:37.306Z,99.90
2019-03-30T21:46:15.746Z,99.90
2019-03-30T21:48:53.748Z,99.90
2019-03-30T21:51:32.454Z,99.90
2019-03-30T21:54:10.450Z,99.90
2019-03-30T21:56:48.353Z,99.90
2019-03-30T21:59:26.214Z,99.90
2019-03-30T22:02:04.490Z,99.90
2019-03-30T22:04:43.131Z,99.90
2019-03-30T22:07:21.131Z,99.90
2019-03-30T22:09:59.758Z,99.90
2019-03-30T22:12:41.795Z,99.90
2019-03-30T22:15:23.723Z,99.90
2019-03-30T22:18:02.043Z,99.90
2019-03-30T22:20:39.992Z,99.90
2019-03-30T22:23:17.865Z,99.90
2019-03-30T22:25:56.345Z,99.90
2019-03-30T22:28:34.405Z,99.90
2019-03-30T22:31:17.871Z,99.90
2019-03-30T22:33:56.145Z,99.90
2019-03-30T22:36:34.057Z,99.90
2019-03-30T22:39:12.051Z,99.90
2019-03-30T22:41:49.812Z,99.90
2019-03-30T22:44:27.976Z,99.90
2019-03-30T22:47:05.912Z,99.90
2019-03-30T22:49:43.805Z,99.90
2019-03-30T22:52:21.778Z,99.90
2019-03-30T22:55:00.140Z,99.90
2019-03-30T22:57:38.238Z,99.90
2019-03-30T23:00:38.926Z,99.90
2019-03-30T23:03:16.778Z,99.90
2019-03-30T23:05:54.747Z,99.90
2019-03-30T23:08:32.693Z,99.90
2019-03-30T23:11:11.072Z,99.90
2019-03-30T23:13:48.918Z,99.90
2019-03-30T23:16:26.975Z,99.90
2019-03-30T23:19:05.304Z,99.90
2019-03-30T23:21:43.225Z,99.90
2019-03-30T23:24:21.348Z,99.90
2019-03-30T23:26:59.802Z,99.90
2019-03-30T23:29:37.644Z,99.90
2019-03-30T23:32:15.960Z,99.90
2019-03-30T23:34:54.429Z,99.90
2019-03-30T23:37:33.674Z,99.90
2019-03-30T23:40:11.727Z,99.90
2019-03-30T23:42:49.801Z,99.90
2019-03-30T23:45:27.700Z,99.90
2019-03-30T23:48:05.644Z,99.90
2019-03-30T23:50:43.672Z,99.90
2019-03-30T23:53:21.446Z,99.90
2019-03-30T23:55:59.401Z,99.90
2019-03-30T23:58:37.436Z,99.90
